Time;durP1;ratioP1;P1;durP2;ratioP2;P2;SDS_P1;SDS_P2;PMS_P1;PMS_P2;Temp;Humidity;BMP_temperature;BMP_pressure;BME280_temperature;BME280_humidity;BME280_pressure;Samples;Min_cycle;Max_cycle;Signal;HPM_P1;HPM_P2
2024/03/10 00:01:33;;;;;;;18.85;9.82;;;9.30;99.90;;;;;;5026434;28;20049;-60
2024/03/10 00:04:00;;;;;;;18.15;9.02;;;9.30;99.90;;;;;;5026423;28;20056;-59
2024/03/10 00:06:26;;;;;;;21.20;9.50;;;9.30;99.90;;;;;;5027503;28;20077;-59
2024/03/10 00:08:53;;;;;;;15.98;9.85;;;9.20;99.90;;;;;;5031462;28;20170;-59
2024/03/10 00:11:21;;;;;;;18.35;8.88;;;9.30;99.90;;;;;;5026534;28;20124;-60
2024/03/10 00:13:48;;;;;;;17.45;8.13;;;9.30;99.90;;;;;;5033038;28;20049;-61
2024/03/10 00:16:16;;;;;;;15.10;8.70;;;9.30;99.90;;;;;;5027557;28;20049;-60
2024/03/10 00:18:43;;;;;;;15.50;9.13;;;9.30;99.90;;;;;;5028755;28;20509;-61
2024/03/10 00:21:10;;;;;;;13.82;8.55;;;9.30;99.90;;;;;;5026888;28;20045;-60
2024/03/10 00:23:37;;;;;;;19.42;8.48;;;9.30;99.90;;;;;;5026886;28;20112;-60
2024/03/10 00:26:05;;;;;;;11.85;7.72;;;9.30;99.90;;;;;;5029738;28;20041;-60
2024/03/10 00:28:36;;;;;;;15.82;8.55;;;9.30;99.90;;;;;;5023110;28;20041;-60
2024/03/10 00:31:03;;;;;;;14.57;8.50;;;9.30;99.90;;;;;;5030124;28;20045;-61
2024/03/10 00:33:30;;;;;;;17.42;7.47;;;9.30;99.90;;;;;;5026426;28;20049;-60
2024/03/10 00:35:57;;;;;;;10.65;7.32;;;9.40;99.90;;;;;;5028281;28;20067;-60
2024/03/10 00:38:27;;;;;;;10.32;6.55;;;9.40;99.90;;;;;;5024065;28;20081;-60
2024/03/10 00:40:54;;;;;;;13.23;5.70;;;9.40;99.90;;;;;;5027025;28;20124;-60
2024/03/10 00:43:21;;;;;;;10.07;5.65;;;9.40;99.90;;;;;;5027888;28;20132;-60
2024/03/10 00:45:51;;;;;;;11.68;6.70;;;9.40;99.90;;;;;;5028230;28;20413;-60
2024/03/10 00:48:18;;;;;;;8.38;4.70;;;9.40;99.90;;;;;;5027237;28;20536;-60
2024/03/10 00:50:48;;;;;;;6.65;4.10;;;9.40;99.90;;;;;;5026694;28;20081;-60
2024/03/10 00:53:15;;;;;;;9.57;3.80;;;9.40;99.90;;;;;;5027848;28;20045;-61
2024/03/10 00:55:44;;;;;;;8.07;3.90;;;9.50;99.90;;;;;;5027951;28;20069;-60
2024/03/10 00:58:12;;;;;;;8.70;3.42;;;9.50;99.90;;;;;;5026590;28;20045;-60
2024/03/10 01:00:38;;;;;;;9.57;4.07;;;9.50;99.90;;;;;;5027708;28;20056;-59
2024/03/10 01:03:10;;;;;;;5.80;3.22;;;9.50;99.90;;;;;;5013750;28;20050;-60
2024/03/10 01:05:37;;;;;;;5.93;2.85;;;9.50;99.90;;;;;;5024402;28;20581;-60
2024/03/10 01:08:04;;;;;;;5.05;2.58;;;9.50;99.90;;;;;;5027023;28;20118;-61
2024/03/10 01:10:31;;;;;;;6.65;2.70;;;9.50;99.90;;;;;;5027750;28;20049;-60
2024/03/10 01:12:58;;;;;;;5.20;3.00;;;9.50;99.90;;;;;;5029385;28;20751;-60
2024/03/10 01:15:25;;;;;;;4.80;2.72;;;9.50;99.90;;;;;;5025617;28;20095;-60
2024/03/10 01:17:53;;;;;;;5.75;2.72;;;9.50;99.90;;;;;;5028142;28;20504;-60
2024/03/10 01:20:20;;;;;;;4.47;2.55;;;9.50;99.90;;;;;;5027291;28;20041;-61
2024/03/10 01:22:47;;;;;;;4.35;2.20;;;9.50;99.90;;;;;;5027357;28;20053;-59
2024/03/10 01:25:14;;;;;;;3.13;2.03;;;9.50;99.90;;;;;;5027295;28;20045;-59
2024/03/10 01:27:43;;;;;;;8.70;3.22;;;9.50;99.90;;;;;;5027721;28;20060;-60
2024/03/10 01:30:10;;;;;;;5.85;2.63;;;9.50;99.90;;;;;;5025943;28;20042;-60
2024/03/10 01:32:37;;;;;;;5.47;2.60;;;9.50;99.90;;;;;;5025927;28;20064;-59
2024/03/10 01:35:05;;;;;;;10.27;4.15;;;9.50;99.90;;;;;;5024229;28;20037;-60
2024/03/10 01:37:33;;;;;;;6.00;2.33;;;9.50;99.90;;;;;;5030099;28;20588;-60
2024/03/10 01:40:04;;;;;;;4.13;2.13;;;9.50;99.90;;;;;;5026526;28;20045;-61
2024/03/10 01:42:32;;;;;;;6.38;2.80;;;9.50;99.90;;;;;;5033340;28;20060;-60
2024/03/10 01:44:59;;;;;;;6.78;3.20;;;9.40;99.90;;;;;;5021974;28;20088;-60
2024/03/10 01:47:27;;;;;;;5.20;2.28;;;9.50;99.90;;;;;;5026112;28;20150;-60
2024/03/10 01:49:55;;;;;;;5.50;2.50;;;9.50;99.90;;;;;;5024229;28;20125;-60
2024/03/10 01:52:22;;;;;;;5.38;2.35;;;9.50;99.90;;;;;;5031287;28;20056;-60
2024/03/10 01:54:50;;;;;;;5.03;1.85;;;9.60;99.90;;;;;;5031983;28;20488;-60
2024/03/10 01:57:17;;;;;;;2.75;1.48;;;9.50;99.90;;;;;;5024221;28;20053;-60
2024/03/10 01:59:44;;;;;;;5.15;2.15;;;9.40;99.90;;;;;;5024399;28;20073;-60
2024/03/10 02:02:11;;;;;;;5.75;1.52;;;9.40;99.90;;;;;;5028401;28;20069;-59
2024/03/10 02:04:39;;;;;;;3.78;1.55;;;9.30;99.90;;;;;;5024795;28;20100;-61
2024/03/10 02:07:06;;;;;;;2.35;1.27;;;9.30;99.90;;;;;;5025421;28;20038;-60
2024/03/10 02:09:35;;;;;;;3.72;1.25;;;9.20;99.90;;;;;;5024373;28;20053;-59
2024/03/10 02:12:02;;;;;;;7.50;1.52;;;9.20;99.90;;;;;;5027042;28;20732;-60
2024/03/10 02:14:30;;;;;;;3.83;1.05;;;9.10;99.90;;;;;;5025265;28;20165;-60
2024/03/10 02:16:57;;;;;;;3.13;1.40;;;9.10;99.90;;;;;;5026090;28;20045;-60
2024/03/10 02:19:24;;;;;;;1.30;1.00;;;9.00;99.90;;;;;;5025385;28;20535;-60
2024/03/10 02:21:52;;;;;;;7.43;3.17;;;9.00;99.90;;;;;;5020498;28;20053;-60
2024/03/10 02:24:25;;;;;;;4.55;2.08;;;9.00;99.90;;;;;;5027042;28;20047;-60
2024/03/10 02:26:52;;;;;;;3.47;1.77;;;9.10;99.90;;;;;;5025860;28;20041;-60
2024/03/10 02:29:20;;;;;;;3.50;1.77;;;9.10;99.90;;;;;;5025751;28;20095;-60
2024/03/10 02:48:27;;;;;;;5.13;1.40;;;9.20;99.90;;;;;;5024443;28;20045;-60
2024/03/10 02:50:53;;;;;;;6.28;2.95;;;9.20;99.90;;;;;;5025700;28;20049;-60
2024/03/10 02:53:20;;;;;;;4.78;2.65;;;9.20;99.90;;;;;;5023217;28;20096;-60
2024/03/10 02:55:47;;;;;;;4.85;1.73;;;9.20;99.90;;;;;;5023401;28;20049;-59
2024/03/10 02:58:14;;;;;;;3.97;1.73;;;9.20;99.90;;;;;;5030677;28;20441;-60
2024/03/10 03:00:41;;;;;;;2.83;1.98;;;9.20;99.90;;;;;;5025029;28;20091;-60
2024/03/10 03:03:08;;;;;;;3.70;1.92;;;9.20;99.90;;;;;;5025136;28;20527;-60
2024/03/10 03:05:39;;;;;;;3.67;1.83;;;9.20;99.90;;;;;;5027131;28;20489;-60
2024/03/10 03:08:07;;;;;;;2.95;1.92;;;9.20;99.90;;;;;;5031749;28;20049;-60
2024/03/10 03:10:35;;;;;;;2.80;1.83;;;9.20;99.90;;;;;;5026619;28;20412;-60
2024/03/10 03:13:02;;;;;;;1.92;1.40;;;9.20;99.90;;;;;;5028684;28;20467;-60
2024/03/10 03:15:29;;;;;;;4.03;2.88;;;9.20;99.90;;;;;;5024148;28;20428;-60
2024/03/10 03:17:57;;;;;;;3.47;1.52;;;9.10;99.90;;;;;;5030241;28;20136;-59
2024/03/10 03:20:26;;;;;;;2.55;1.42;;;9.10;99.90;;;;;;5028276;28;20038;-60
2024/03/10 03:22:54;;;;;;;2.55;1.35;;;9.20;99.90;;;;;;5028640;28;20053;-61
2024/03/10 03:25:22;;;;;;;1.98;1.27;;;9.10;99.90;;;;;;5028569;28;20045;-60
2024/03/10 03:27:50;;;;;;;2.67;1.67;;;9.10;99.90;;;;;;5028015;28;20045;-60
2024/03/10 03:30:17;;;;;;;1.40;1.08;;;9.10;99.90;;;;;;5025620;28;20121;-61
2024/03/10 03:32:44;;;;;;;5.97;2.28;;;9.00;99.90;;;;;;5028460;28;20489;-61
2024/03/10 03:35:11;;;;;;;1.83;1.40;;;9.00;99.90;;;;;;5030293;28;20125;-62
2024/03/10 03:37:38;;;;;;;2.40;1.83;;;9.00;99.90;;;;;;5031941;28;20064;-60
2024/03/10 03:40:09;;;;;;;3.13;1.52;;;9.10;99.90;;;;;;5028059;28;20049;-60
2024/03/10 03:42:36;;;;;;;3.60;1.50;;;9.10;99.90;;;;;;5024185;28;20050;-60
2024/03/10 03:45:07;;;;;;;1.95;1.08;;;9.10;99.90;;;;;;5031116;28;20497;-61
2024/03/10 03:47:34;;;;;;;1.55;0.95;;;9.10;99.90;;;;;;5022562;28;20112;-60
2024/03/10 03:50:01;;;;;;;2.33;1.13;;;9.00;99.90;;;;;;5028344;28;20514;-61
2024/03/10 03:52:28;;;;;;;2.35;1.52;;;9.00;99.90;;;;;;5028525;28;20065;-60
2024/03/10 03:54:55;;;;;;;2.55;1.48;;;9.00;99.90;;;;;;5035136;28;20052;-60
2024/03/10 03:57:22;;;;;;;3.42;1.38;;;9.00;99.90;;;;;;5028353;28;20042;-60
2024/03/10 03:59:50;;;;;;;2.40;1.55;;;9.00;99.90;;;;;;5028686;28;20119;-60
2024/03/10 04:02:23;;;;;;;3.08;1.50;;;9.00;99.90;;;;;;5026229;28;20056;-61
2024/03/10 04:04:50;;;;;;;3.20;2.28;;;9.00;99.90;;;;;;5027027;28;20045;-61
2024/03/10 04:07:17;;;;;;;5.90;1.65;;;9.00;99.90;;;;;;5026255;28;20485;-60
2024/03/10 04:09:44;;;;;;;1.75;1.42;;;9.10;99.90;;;;;;5028614;28;20081;-60
2024/03/10 04:12:11;;;;;;;2.05;1.23;;;9.00;99.90;;;;;;5031388;28;20053;-60
2024/03/10 04:17:06;;;;;;;3.15;1.27;;;9.00;99.90;;;;;;4611252;22;20041;-68
2024/03/10 04:19:33;;;;;;;3.40;1.15;;;9.00;99.90;;;;;;5043792;28;20071;-68
2024/03/10 04:22:00;;;;;;;3.10;1.27;;;9.00;99.90;;;;;;5038170;28;20403;-67
2024/03/10 04:24:26;;;;;;;3.28;1.33;;;9.00;99.90;;;;;;5044447;28;20049;-68
2024/03/10 04:26:53;;;;;;;1.88;1.33;;;9.00;99.90;;;;;;5039407;28;20048;-67
2024/03/10 04:29:20;;;;;;;5.10;1.50;;;9.00;99.90;;;;;;5044665;28;20095;-67
2024/03/10 04:31:48;;;;;;;4.40;1.40;;;9.00;99.90;;;;;;5043584;28;20048;-67
2024/03/10 04:34:15;;;;;;;3.22;1.83;;;9.00;99.90;;;;;;5046246;28;20036;-68
2024/03/10 04:36:42;;;;;;;2.55;2.08;;;9.00;99.90;;;;;;5039516;28;20045;-70
2024/03/10 04:39:10;;;;;;;2.55;1.67;;;9.10;99.90;;;;;;5044592;28;20069;-67
2024/03/10 04:41:37;;;;;;;2.60;1.92;;;9.00;99.90;;;;;;5043350;28;20158;-68
2024/03/10 04:44:04;;;;;;;2.58;1.90;;;9.00;99.90;;;;;;5045676;28;20045;-66
2024/03/10 04:46:32;;;;;;;2.90;2.13;;;9.00;99.90;;;;;;5042410;28;20060;-67
2024/03/10 04:48:59;;;;;;;6.32;2.28;;;8.90;99.90;;;;;;5039311;28;20049;-68
2024/03/10 04:51:26;;;;;;;3.08;1.80;;;8.90;99.90;;;;;;5044370;28;20097;-67
2024/03/10 04:53:53;;;;;;;8.13;1.92;;;8.90;99.90;;;;;;5040093;28;20106;-67
2024/03/10 04:56:20;;;;;;;3.47;2.38;;;8.80;99.90;;;;;;5043450;28;20095;-68
2024/03/10 04:58:49;;;;;;;3.50;1.75;;;8.70;99.90;;;;;;5038189;28;20050;-67
2024/03/10 05:01:16;;;;;;;2.45;1.67;;;8.70;99.90;;;;;;5039812;28;20110;-67
2024/03/10 05:03:43;;;;;;;6.75;1.67;;;8.60;99.90;;;;;;5042561;28;20569;-67
2024/03/10 05:06:10;;;;;;;3.45;1.50;;;8.60;99.90;;;;;;5043803;28;20067;-67
2024/03/10 05:08:37;;;;;;;3.08;2.08;;;8.50;99.90;;;;;;5042081;28;20052;-67
2024/03/10 05:11:04;;;;;;;4.93;2.00;;;8.50;99.90;;;;;;5042557;28;20041;-67
2024/03/10 05:13:35;;;;;;;2.42;1.45;;;8.50;99.90;;;;;;5041975;28;20051;-67
2024/03/10 05:16:03;;;;;;;2.47;1.50;;;8.50;99.90;;;;;;5041896;28;20049;-66
2024/03/10 05:18:33;;;;;;;1.70;1.30;;;8.50;99.90;;;;;;5039967;28;21342;-66
2024/03/10 05:20:59;;;;;;;2.42;1.30;;;8.50;99.90;;;;;;5038732;28;20049;-66
2024/03/10 05:23:27;;;;;;;2.10;1.30;;;8.50;99.90;;;;;;5045092;28;20045;-66
2024/03/10 05:25:54;;;;;;;4.88;1.35;;;8.50;99.90;;;;;;5040582;28;20521;-67
2024/03/10 05:28:21;;;;;;;3.17;1.63;;;8.50;99.90;;;;;;5041041;28;20064;-67
2024/03/10 05:30:48;;;;;;;2.40;1.48;;;8.50;99.90;;;;;;5042782;28;20103;-66
2024/03/10 05:33:14;;;;;;;2.10;1.38;;;8.50;99.90;;;;;;5039176;28;20049;-66
2024/03/10 05:35:42;;;;;;;2.70;1.13;;;8.50;99.90;;;;;;5035474;28;20466;-67
2024/03/10 05:38:08;;;;;;;2.00;1.33;;;8.50;99.90;;;;;;5038475;28;20052;-66
2024/03/10 05:40:35;;;;;;;2.05;1.42;;;8.50;99.90;;;;;;5043900;28;20059;-67
2024/03/10 05:43:02;;;;;;;1.80;1.27;;;8.50;99.90;;;;;;5028454;28;20048;-66
2024/03/10 05:45:29;;;;;;;2.67;1.40;;;8.50;99.90;;;;;;5044370;28;20053;-65
2024/03/10 05:47:57;;;;;;;3.42;1.85;;;8.40;99.90;;;;;;5040591;28;20512;-66
2024/03/10 05:50:25;;;;;;;2.15;1.60;;;8.40;99.90;;;;;;5040880;28;20079;-66
2024/03/10 05:52:52;;;;;;;2.15;1.42;;;8.40;99.90;;;;;;5044228;28;20076;-67
2024/03/10 05:55:20;;;;;;;2.53;1.40;;;8.50;99.90;;;;;;5041892;28;20125;-67
2024/03/10 05:57:47;;;;;;;3.00;1.35;;;8.40;99.90;;;;;;5039707;28;20589;-67
2024/03/10 06:00:14;;;;;;;3.03;1.35;;;8.50;99.90;;;;;;5042871;28;20041;-68
2024/03/10 06:02:44;;;;;;;3.30;1.50;;;8.50;99.90;;;;;;5037130;28;20049;-67
2024/03/10 06:05:13;;;;;;;6.90;2.85;;;8.50;99.90;;;;;;5034859;28;20511;-67
2024/03/10 06:07:42;;;;;;;3.40;1.50;;;8.50;99.90;;;;;;5042599;28;20217;-67
2024/03/10 06:10:13;;;;;;;2.28;1.42;;;8.50;99.90;;;;;;5043331;28;20132;-67
2024/03/10 06:12:40;;;;;;;4.55;1.70;;;8.50;99.90;;;;;;5036708;28;20053;-68
2024/03/10 06:15:10;;;;;;;2.35;1.58;;;8.50;99.90;;;;;;5036845;28;20045;-68
2024/03/10 06:17:40;;;;;;;2.95;1.70;;;8.50;99.90;;;;;;5029909;28;20068;-67
2024/03/10 06:25:40;;;;;;;2.70;1.85;;;8.50;99.90;;;;;;5044129;28;20074;-68
2024/03/10 06:28:07;;;;;;;4.00;1.90;;;8.50;99.90;;;;;;5039191;28;20072;-68
2024/03/10 06:30:35;;;;;;;2.30;1.70;;;8.50;99.90;;;;;;5038660;28;20136;-66
2024/03/10 06:33:02;;;;;;;2.60;1.75;;;8.50;99.90;;;;;;5040188;28;20126;-68
2024/03/10 06:35:29;;;;;;;3.25;2.13;;;8.50;99.90;;;;;;5036298;28;20045;-65
2024/03/10 06:37:56;;;;;;;3.15;2.05;;;8.50;99.90;;;;;;5038697;28;20077;-66
2024/03/10 06:40:23;;;;;;;4.07;2.20;;;8.50;99.90;;;;;;5041722;28;20515;-67
2024/03/10 06:42:50;;;;;;;4.25;2.35;;;8.60;99.90;;;;;;5038203;28;20066;-66
2024/03/10 06:45:17;;;;;;;6.80;2.42;;;8.60;99.90;;;;;;5039903;28;20060;-68
2024/03/10 06:47:44;;;;;;;2.80;1.80;;;8.60;99.90;;;;;;5046638;28;20055;-68
2024/03/10 06:50:12;;;;;;;6.68;2.35;;;8.80;99.90;;;;;;5042262;28;20041;-67
2024/03/10 06:52:40;;;;;;;6.28;2.42;;;8.60;99.90;;;;;;5041750;28;20044;-68
2024/03/10 06:55:08;;;;;;;4.35;2.45;;;8.70;99.90;;;;;;5042731;28;20041;-68
2024/03/10 06:57:38;;;;;;;3.67;2.72;;;8.70;99.90;;;;;;5043841;28;20065;-67
2024/03/10 07:00:08;;;;;;;7.25;3.28;;;8.70;99.90;;;;;;5042333;28;20661;-68
2024/03/10 07:02:37;;;;;;;3.70;2.63;;;8.70;99.90;;;;;;5037932;28;20079;-69
2024/03/10 07:05:08;;;;;;;5.40;3.13;;;8.70;99.90;;;;;;5041914;28;20048;-68
2024/03/10 07:07:35;;;;;;;5.07;3.13;;;8.80;99.90;;;;;;5043357;28;20451;-67
2024/03/10 07:10:02;;;;;;;3.15;2.35;;;8.80;99.90;;;;;;5042414;28;20202;-68
2024/03/10 07:12:30;;;;;;;5.22;3.30;;;8.80;99.90;;;;;;5040168;28;20056;-68
2024/03/10 07:14:57;;;;;;;4.90;3.58;;;8.80;99.90;;;;;;5040104;28;20392;-68
2024/03/10 07:17:24;;;;;;;4.32;3.08;;;8.80;99.90;;;;;;5041074;28;20049;-68
2024/03/10 07:19:52;;;;;;;6.15;3.65;;;8.80;99.90;;;;;;4689248;28;9999631;-68
2024/03/10 07:22:19;;;;;;;5.45;3.10;;;8.80;99.90;;;;;;5042734;28;20056;-67
2024/03/10 07:24:45;;;;;;;5.72;3.45;;;8.80;99.90;;;;;;5035897;28;20092;-68
2024/03/10 07:27:12;;;;;;;5.32;3.50;;;8.90;99.90;;;;;;5041449;28;20082;-67
2024/03/10 07:29:40;;;;;;;5.60;3.95;;;8.80;99.90;;;;;;5039395;28;20049;-65
2024/03/10 07:32:06;;;;;;;6.65;3.47;;;8.80;99.90;;;;;;5041163;28;20057;-68
2024/03/10 07:34:33;;;;;;;7.45;4.00;;;8.90;99.90;;;;;;5046454;28;20467;-67
2024/03/10 07:37:01;;;;;;;7.68;3.58;;;8.90;99.90;;;;;;5039045;28;20052;-67
2024/03/10 07:39:28;;;;;;;6.53;3.92;;;8.90;99.90;;;;;;5039887;28;20567;-67
2024/03/10 07:41:56;;;;;;;5.75;4.07;;;8.90;99.90;;;;;;5042332;28;20047;-67
2024/03/10 07:44:25;;;;;;;5.82;4.38;;;8.90;99.90;;;;;;5038639;28;20059;-67
2024/03/10 07:46:52;;;;;;;10.93;4.50;;;8.90;99.90;;;;;;5043838;28;20057;-67
2024/03/10 07:49:19;;;;;;;9.70;4.32;;;8.90;99.90;;;;;;5040576;28;20049;-68
2024/03/10 07:51:46;;;;;;;5.43;3.67;;;9.00;99.90;;;;;;5038466;28;20049;-66
2024/03/10 07:54:13;;;;;;;5.90;4.80;;;9.00;99.90;;;;;;5037777;28;20756;-66
2024/03/10 07:56:40;;;;;;;4.72;3.63;;;9.10;99.90;;;;;;5040750;28;20250;-66
2024/03/10 07:59:07;;;;;;;6.68;4.30;;;9.10;99.90;;;;;;5041678;28;20514;-67
2024/03/10 08:01:34;;;;;;;4.43;3.58;;;9.10;99.90;;;;;;5039558;28;20060;-66
2024/03/10 08:04:01;;;;;;;5.38;4.20;;;9.20;99.90;;;;;;5041244;28;20053;-66
2024/03/10 08:06:28;;;;;;;5.97;5.28;;;9.20;99.90;;;;;;5045986;28;20144;-68
2024/03/10 08:08:54;;;;;;;6.63;3.83;;;9.30;99.90;;;;;;5041606;28;20053;-67
2024/03/10 08:11:22;;;;;;;5.57;3.97;;;9.30;99.90;;;;;;5041239;28;20041;-67
2024/03/10 08:13:49;;;;;;;6.82;3.72;;;9.30;99.90;;;;;;5037328;28;20094;-66
2024/03/10 08:16:16;;;;;;;7.22;4.03;;;9.30;99.90;;;;;;5044000;28;20072;-68
2024/03/10 08:18:43;;;;;;;6.60;4.03;;;9.30;99.90;;;;;;5044972;28;20056;-67
2024/03/10 08:21:12;;;;;;;4.88;3.70;;;9.30;99.90;;;;;;5047670;28;20076;-66
2024/03/10 08:23:40;;;;;;;4.20;3.25;;;9.20;99.90;;;;;;5045325;28;20057;-66
2024/03/10 08:26:10;;;;;;;6.32;3.70;;;9.20;99.90;;;;;;5045342;28;20049;-67
2024/03/10 08:28:37;;;;;;;7.18;3.40;;;9.20;99.90;;;;;;5043544;28;20141;-67
2024/03/10 08:31:05;;;;;;;5.05;3.60;;;9.20;99.90;;;;;;5048813;28;20115;-68
2024/03/10 08:33:33;;;;;;;4.65;3.10;;;9.20;99.90;;;;;;5045954;28;20429;-70
2024/03/10 08:36:00;;;;;;;5.05;3.47;;;9.20;99.90;;;;;;5047364;28;20049;-68
2024/03/10 08:38:27;;;;;;;6.85;4.00;;;9.20;99.90;;;;;;5046592;28;20079;-68
2024/03/10 08:40:55;;;;;;;6.22;3.70;;;9.20;99.90;;;;;;5046390;28;20049;-68
2024/03/10 08:43:24;;;;;;;7.47;4.20;;;9.20;99.90;;;;;;5049678;28;20076;-67
2024/03/10 08:45:51;;;;;;;5.97;3.80;;;9.30;99.90;;;;;;5042706;28;20587;-68
2024/03/10 08:48:19;;;;;;;7.22;4.05;;;9.30;99.90;;;;;;5046799;28;20074;-68
2024/03/10 08:50:46;;;;;;;5.95;3.80;;;9.30;99.90;;;;;;5030752;28;20475;-68
2024/03/10 08:53:13;;;;;;;5.32;3.33;;;9.40;99.90;;;;;;5041747;28;20041;-68
2024/03/10 08:55:41;;;;;;;6.53;4.35;;;9.30;99.90;;;;;;5045059;28;20087;-67
2024/03/10 08:58:08;;;;;;;9.13;4.55;;;9.40;99.90;;;;;;5041270;28;20049;-67
2024/03/10 09:00:35;;;;;;;7.80;4.00;;;9.40;99.90;;;;;;5045440;28;20052;-67
2024/03/10 09:03:03;;;;;;;12.48;4.35;;;9.50;99.90;;;;;;5044999;28;20041;-68
2024/03/10 09:05:31;;;;;;;7.72;4.75;;;9.50;99.90;;;;;;5045829;28;20057;-68
2024/03/10 09:07:59;;;;;;;5.70;4.40;;;9.60;99.90;;;;;;5042640;28;20129;-67
2024/03/10 09:10:27;;;;;;;9.00;5.20;;;9.60;99.90;;;;;;5044115;28;20049;-67
2024/03/10 09:13:09;;;;;;;7.75;5.03;;;9.60;99.90;;;;;;5036551;28;20056;-68
2024/03/10 09:15:36;;;;;;;10.32;7.43;;;9.60;99.90;;;;;;5037934;28;20052;-67
2024/03/10 09:18:03;;;;;;;12.18;7.68;;;9.60;99.90;;;;;;5043275;28;20775;-67
2024/03/10 09:20:30;;;;;;;7.63;5.28;;;9.60;99.90;;;;;;5040748;28;20716;-67
2024/03/10 09:22:57;;;;;;;6.88;5.18;;;9.60;99.90;;;;;;5044968;28;20049;-68
2024/03/10 09:25:24;;;;;;;10.13;4.80;;;9.70;99.90;;;;;;5040298;28;20561;-68
2024/03/10 09:27:52;;;;;;;8.18;5.25;;;9.70;99.90;;;;;;5044573;28;20045;-68
2024/03/10 09:30:21;;;;;;;7.20;4.38;;;9.80;99.90;;;;;;5048836;28;20052;-67
2024/03/10 09:32:50;;;;;;;6.80;4.80;;;9.70;99.90;;;;;;5046332;28;20049;-68
2024/03/10 09:35:23;;;;;;;5.65;4.85;;;9.70;99.90;;;;;;5042524;28;20064;-68
2024/03/10 09:37:51;;;;;;;11.52;5.07;;;9.80;99.90;;;;;;5044989;28;20086;-70
2024/03/10 09:40:18;;;;;;;6.47;4.05;;;9.80;99.90;;;;;;5047043;28;20049;-70
2024/03/10 09:42:47;;;;;;;5.47;3.90;;;9.80;99.90;;;;;;5045005;28;20044;-69
2024/03/10 09:45:17;;;;;;;5.63;4.65;;;9.70;99.90;;;;;;5044336;28;20107;-69
2024/03/10 09:47:44;;;;;;;12.98;4.85;;;9.70;99.90;;;;;;5042705;28;20102;-70
2024/03/10 09:50:11;;;;;;;4.97;4.05;;;9.80;99.90;;;;;;5046471;28;20835;-70
2024/03/10 09:52:38;;;;;;;5.15;4.35;;;9.80;99.90;;;;;;5044185;28;20045;-70
2024/03/10 09:55:06;;;;;;;5.72;3.83;;;9.80;99.90;;;;;;5047776;28;20048;-69
2024/03/10 09:57:34;;;;;;;6.95;4.93;;;9.80;99.90;;;;;;5041334;28;20045;-70
2024/03/10 10:00:11;;;;;;;6.47;3.95;;;9.80;99.90;;;;;;5035379;28;20053;-68
2024/03/10 10:02:42;;;;;;;5.60;3.65;;;9.80;99.90;;;;;;5041406;28;20103;-68
2024/03/10 10:05:14;;;;;;;5.57;4.05;;;9.80;99.90;;;;;;5035023;28;20446;-67
2024/03/10 10:07:41;;;;;;;6.10;3.80;;;9.80;99.90;;;;;;5043405;28;20049;-68
2024/03/10 10:10:08;;;;;;;5.93;3.47;;;9.90;99.90;;;;;;5044713;28;20077;-67
2024/03/10 10:12:35;;;;;;;3.55;2.90;;;9.90;99.90;;;;;;5042513;28;20363;-68
2024/03/10 10:15:03;;;;;;;8.93;4.43;;;10.00;99.90;;;;;;5042099;28;20106;-68
2024/03/10 10:17:32;;;;;;;4.05;3.08;;;10.10;99.90;;;;;;5035914;28;20086;-67
2024/03/10 10:19:59;;;;;;;4.68;3.15;;;10.10;99.90;;;;;;5044117;28;20129;-67
2024/03/10 10:22:26;;;;;;;4.13;2.60;;;10.10;99.90;;;;;;5035179;28;20064;-67
2024/03/10 10:25:03;;;;;;;5.30;2.72;;;10.20;99.90;;;;;;5042403;28;20056;-67
2024/03/10 10:27:49;;;;;;;5.47;2.67;;;10.30;99.90;;;;;;5039856;28;20049;-68
2024/03/10 10:30:25;;;;;;;3.42;2.10;;;10.20;99.90;;;;;;5038616;28;20045;-68
2024/03/10 10:33:12;;;;;;;2.63;1.92;;;10.20;99.90;;;;;;5037967;28;20064;-67
2024/03/10 10:35:42;;;;;;;2.30;1.63;;;10.20;99.90;;;;;;5045136;28;20088;-67
2024/03/10 10:38:12;;;;;;;3.20;1.90;;;10.20;99.90;;;;;;5042685;28;20079;-67
2024/03/10 10:40:45;;;;;;;4.97;2.03;;;10.20;99.90;;;;;;5042710;28;20125;-67
2024/03/10 10:43:12;;;;;;;3.03;1.80;;;10.20;99.90;;;;;;5044172;28;20056;-67
2024/03/10 10:45:39;;;;;;;3.40;2.10;;;10.30;99.90;;;;;;5045488;28;20041;-69
2024/03/10 10:48:09;;;;;;;6.30;2.47;;;10.30;99.90;;;;;;5043301;28;20105;-67
2024/03/10 10:50:37;;;;;;;2.88;1.77;;;10.30;99.90;;;;;;5044942;28;20289;-67
2024/03/10 10:53:06;;;;;;;2.30;1.52;;;10.30;99.90;;;;;;5043270;28;20049;-68
2024/03/10 10:55:34;;;;;;;1.95;1.65;;;10.30;99.90;;;;;;5039729;28;20063;-68
2024/03/10 10:58:04;;;;;;;3.17;2.20;;;10.30;99.90;;;;;;5040854;28;20077;-67
2024/03/10 11:00:31;;;;;;;1.95;1.52;;;10.30;99.90;;;;;;5039774;28;20056;-66
2024/03/10 11:03:15;;;;;;;2.25;1.73;;;10.30;99.90;;;;;;5036545;28;20050;-67
2024/03/10 11:06:01;;;;;;;;;;;10.30;99.90;;;;;;5042075;28;20115;-66
2024/03/10 11:08:40;;;;;;;2.85;1.75;;;10.30;99.90;;;;;;5041317;28;19929;-66
2024/03/10 11:11:08;;;;;;;3.13;2.03;;;10.30;99.90;;;;;;5041747;28;20103;-67
2024/03/10 11:13:40;;;;;;;6.22;1.95;;;10.30;99.90;;;;;;5038370;28;20056;-65
2024/03/10 11:16:12;;;;;;;4.35;1.83;;;10.30;99.90;;;;;;5043290;28;20108;-68
2024/03/10 11:18:42;;;;;;;1.85;1.45;;;10.30;99.90;;;;;;5040215;28;20053;-67
2024/03/10 11:21:19;;;;;;;3.38;1.70;;;10.30;99.90;;;;;;5039333;28;20393;-67
2024/03/10 11:23:50;;;;;;;3.92;1.70;;;10.20;99.90;;;;;;5038811;28;20053;-67
2024/03/10 11:26:20;;;;;;;2.53;1.30;;;10.20;99.90;;;;;;5034943;28;20045;-67
2024/03/10 11:28:52;;;;;;;2.72;1.65;;;10.10;99.90;;;;;;5038981;28;20067;-68
2024/03/10 11:31:35;;;;;;;4.15;2.00;;;10.00;99.90;;;;;;5042777;28;20511;-68
2024/03/10 11:34:03;;;;;;;4.78;1.88;;;9.90;99.90;;;;;;5043773;28;20050;-68
2024/03/10 11:36:37;;;;;;;3.30;2.08;;;10.00;99.90;;;;;;5045509;28;20061;-68
2024/03/10 11:39:05;;;;;;;3.70;2.08;;;9.90;99.90;;;;;;5042975;28;20041;-68
2024/03/10 11:41:32;;;;;;;4.78;2.60;;;9.90;99.90;;;;;;5047324;28;20511;-68
2024/03/10 11:43:59;;;;;;;7.95;3.47;;;9.80;99.90;;;;;;5045340;28;20060;-67
2024/03/10 11:46:33;;;;;;;5.80;3.35;;;9.90;99.90;;;;;;5046078;28;20044;-67
2024/03/10 11:49:01;;;;;;;4.50;3.33;;;10.00;99.90;;;;;;5042735;28;20048;-68
2024/03/10 11:51:31;;;;;;;5.80;4.35;;;9.90;99.90;;;;;;4703640;28;10000667;-69
2024/03/10 11:54:00;;;;;;;7.15;5.18;;;10.00;99.90;;;;;;5043764;28;20047;-68
2024/03/10 11:56:29;;;;;;;7.70;5.25;;;10.00;99.90;;;;;;5042637;28;20056;-68
2024/03/10 11:58:57;;;;;;;8.75;6.68;;;10.00;99.90;;;;;;5043192;28;20518;-68
2024/03/10 12:01:26;;;;;;;10.23;6.40;;;10.10;99.90;;;;;;5041969;28;20055;-67
2024/03/10 12:04:05;;;;;;;8.23;5.78;;;10.00;99.90;;;;;;5041639;28;20052;-68
2024/03/10 12:06:33;;;;;;;7.10;5.32;;;10.00;99.90;;;;;;5042100;28;20312;-68
2024/03/10 12:09:12;;;;;;;6.65;5.50;;;9.90;99.90;;;;;;5044050;28;20145;-67
2024/03/10 12:11:41;;;;;;;15.25;7.07;;;10.00;99.90;;;;;;5050245;28;20139;-67
2024/03/10 12:14:11;;;;;;;7.13;5.95;;;9.90;99.90;;;;;;5045987;28;20142;-70
2024/03/10 12:16:47;;;;;;;10.10;6.72;;;9.90;99.90;;;;;;5052230;28;20061;-67
2024/03/10 12:19:15;;;;;;;11.75;8.00;;;9.90;99.90;;;;;;5028759;28;20052;-67
2024/03/10 12:21:45;;;;;;;11.52;8.75;;;9.90;99.90;;;;;;5036259;28;20596;-67
2024/03/10 12:24:13;;;;;;;14.77;10.18;;;9.80;99.90;;;;;;5042206;28;20059;-67
2024/03/10 12:26:40;;;;;;;17.98;10.95;;;9.80;99.90;;;;;;5035643;28;20049;-67
2024/03/10 12:29:08;;;;;;;15.43;11.45;;;9.80;99.90;;;;;;5041435;28;20483;-67
2024/03/10 12:31:36;;;;;;;16.95;11.13;;;9.80;99.90;;;;;;5037929;28;20052;-67
2024/03/10 12:34:04;;;;;;;19.95;13.23;;;9.70;99.90;;;;;;5043271;28;20045;-66
2024/03/10 12:36:33;;;;;;;22.33;13.00;;;9.70;99.90;;;;;;5043736;28;20053;-69
2024/03/10 12:39:00;;;;;;;22.77;14.32;;;9.70;99.90;;;;;;5046035;28;20047;-68
2024/03/10 12:41:28;;;;;;;19.55;13.75;;;9.60;99.90;;;;;;5044086;28;20111;-68
2024/03/10 12:43:56;;;;;;;26.10;15.48;;;9.60;99.90;;;;;;5045125;28;20052;-68
2024/03/10 12:46:23;;;;;;;29.42;16.77;;;9.60;99.90;;;;;;5040311;28;20107;-67
2024/03/10 12:48:52;;;;;;;23.10;15.82;;;9.50;99.90;;;;;;5039236;28;20080;-66
2024/03/10 12:51:20;;;;;;;28.13;17.95;;;9.50;99.90;;;;;;5041266;28;20083;-66
2024/03/10 12:53:48;;;;;;;28.55;18.60;;;9.60;99.90;;;;;;5039382;28;20051;-66
2024/03/10 12:56:16;;;;;;;29.08;18.13;;;9.60;99.90;;;;;;5035945;28;20049;-66
2024/03/10 12:58:43;;;;;;;30.15;18.92;;;9.50;99.90;;;;;;5039038;28;20495;-66
2024/03/10 13:01:10;;;;;;;30.40;19.02;;;9.50;99.90;;;;;;5052307;28;20151;-66
2024/03/10 13:03:37;;;;;;;31.92;19.88;;;9.50;99.90;;;;;;5037478;28;20071;-66
2024/03/10 13:06:05;;;;;;;34.10;18.92;;;9.50;99.90;;;;;;5042066;28;20049;-66
2024/03/10 13:08:32;;;;;;;34.25;20.75;;;9.50;99.90;;;;;;5040808;28;20061;-66
2024/03/10 13:10:59;;;;;;;29.52;19.83;;;9.50;99.90;;;;;;5038588;28;20057;-66
2024/03/10 13:13:27;;;;;;;39.08;20.80;;;9.50;99.90;;;;;;5039967;28;20092;-66
2024/03/10 13:15:54;;;;;;;30.15;19.70;;;9.50;99.90;;;;;;5037953;28;20144;-66
2024/03/10 13:18:22;;;;;;;36.28;19.77;;;9.50;99.90;;;;;;5041701;28;20056;-66
2024/03/10 13:20:49;;;;;;;34.13;20.45;;;9.50;99.90;;;;;;5040815;28;20399;-66
2024/03/10 13:23:16;;;;;;;34.55;19.05;;;9.50;99.90;;;;;;5032367;28;20511;-68